sensor_id;sensor_type;location;lat;lon;timestamp;P1;durP1;ratioP1;P2;durP2;ratioP2
41568;SDS011;27283;52.504;13.358;2022-12-18T00:02:19;77.30;;;21.80;;
41568;SDS011;27283;52.504;13.358;2022-12-18T00:04:51;84.15;;;21.90;;
41568;SDS011;27283;52.504;13.358;2022-12-18T00:07:22;70.28;;;19.45;;
41568;SDS011;27283;52.504;13.358;2022-12-18T00:09:54;74.88;;;21.08;;
41568;SDS011;27283;52.504;13.358;2022-12-18T00:12:28;86.95;;;21.27;;
41568;SDS011;27283;52.504;13.358;2022-12-18T00:14:59;78.10;;;20.95;;
41568;SDS011;27283;52.504;13.358;2022-12-18T00:17:30;77.32;;;20.42;;
41568;SDS011;27283;52.504;13.358;2022-12-18T00:20:03;79.00;;;21.15;;
41568;SDS011;27283;52.504;13.358;2022-12-18T00:22:35;74.65;;;18.77;;
41568;SDS011;27283;52.504;13.358;2022-12-18T00:25:07;67.28;;;19.83;;
41568;SDS011;27283;52.504;13.358;2022-12-18T00:27:41;72.43;;;20.15;;
41568;SDS011;27283;52.504;13.358;2022-12-18T00:30:12;81.40;;;21.83;;
41568;SDS011;27283;52.504;13.358;2022-12-18T00:32:43;78.85;;;20.35;;
41568;SDS011;27283;52.504;13.358;2022-12-18T00:35:17;81.70;;;22.73;;
41568;SDS011;27283;52.504;13.358;2022-12-18T00:37:50;82.38;;;22.05;;
41568;SDS011;27283;52.504;13.358;2022-12-18T00:40:22;88.30;;;23.02;;
41568;SDS011;27283;52.504;13.358;2022-12-18T00:42:55;85.60;;;23.23;;
41568;SDS011;27283;52.504;13.358;2022-12-18T00:45:26;88.55;;;24.52;;
41568;SDS011;27283;52.504;13.358;2022-12-18T00:48:07;72.45;;;19.90;;
41568;SDS011;27283;52.504;13.358;2022-12-18T00:50:40;89.80;;;19.60;;
41568;SDS011;27283;52.504;13.358;2022-12-18T00:53:12;79.28;;;20.80;;
41568;SDS011;27283;52.504;13.358;2022-12-18T00:55:44;75.80;;;19.38;;
41568;SDS011;27283;52.504;13.358;2022-12-18T00:58:18;79.55;;;20.95;;
41568;SDS011;27283;52.504;13.358;2022-12-18T01:00:50;93.63;;;21.40;;
41568;SDS011;27283;52.504;13.358;2022-12-18T01:03:21;86.63;;;22.50;;
41568;SDS011;27283;52.504;13.358;2022-12-18T01:05:53;91.82;;;23.65;;
41568;SDS011;27283;52.504;13.358;2022-12-18T01:08:24;85.75;;;22.42;;
41568;SDS011;27283;52.504;13.358;2022-12-18T01:10:56;81.13;;;20.92;;
41568;SDS011;27283;52.504;13.358;2022-12-18T01:13:30;78.75;;;20.73;;
41568;SDS011;27283;52.504;13.358;2022-12-18T01:16:01;80.13;;;19.52;;
41568;SDS011;27283;52.504;13.358;2022-12-18T01:18:33;88.90;;;21.15;;
41568;SDS011;27283;52.504;13.358;2022-12-18T01:21:05;84.35;;;21.75;;
41568;SDS011;27283;52.504;13.358;2022-12-18T01:23:37;88.75;;;23.02;;
41568;SDS011;27283;52.504;13.358;2022-12-18T01:26:10;80.43;;;22.80;;
41568;SDS011;27283;52.504;13.358;2022-12-18T01:28:47;89.18;;;22.25;;
41568;SDS011;27283;52.504;13.358;2022-12-18T01:31:20;85.93;;;21.98;;
41568;SDS011;27283;52.504;13.358;2022-12-18T01:33:53;89.60;;;24.52;;
41568;SDS011;27283;52.504;13.358;2022-12-18T01:36:27;87.15;;;22.80;;
41568;SDS011;27283;52.504;13.358;2022-12-18T01:38:59;86.30;;;22.45;;
41568;SDS011;27283;52.504;13.358;2022-12-18T01:41:34;90.10;;;23.23;;
41568;SDS011;27283;52.504;13.358;2022-12-18T01:47:41;81.57;;;22.35;;
41568;SDS011;27283;52.504;13.358;2022-12-18T01:50:16;83.50;;;22.92;;
41568;SDS011;27283;52.504;13.358;2022-12-18T01:52:51;83.88;;;20.98;;
41568;SDS011;27283;52.504;13.358;2022-12-18T01:55:26;84.97;;;22.40;;
41568;SDS011;27283;52.504;13.358;2022-12-18T01:58:00;86.40;;;22.70;;
41568;SDS011;27283;52.504;13.358;2022-12-18T02:00:32;80.38;;;20.05;;
41568;SDS011;27283;52.504;13.358;2022-12-18T02:03:07;82.65;;;22.60;;
41568;SDS011;27283;52.504;13.358;2022-12-18T02:05:41;87.85;;;23.45;;
41568;SDS011;27283;52.504;13.358;2022-12-18T02:08:18;89.43;;;22.80;;
41568;SDS011;27283;52.504;13.358;2022-12-18T02:10:54;89.90;;;24.10;;
41568;SDS011;27283;52.504;13.358;2022-12-18T02:13:37;97.72;;;23.10;;
41568;SDS011;27283;52.504;13.358;2022-12-18T02:16:19;85.13;;;21.38;;
41568;SDS011;27283;52.504;13.358;2022-12-18T02:18:59;99.47;;;24.95;;
41568;SDS011;27283;52.504;13.358;2022-12-18T02:21:39;95.20;;;23.23;;
41568;SDS011;27283;52.504;13.358;2022-12-18T02:24:24;102.40;;;23.48;;
41568;SDS011;27283;52.504;13.358;2022-12-18T02:27:02;98.93;;;24.08;;
41568;SDS011;27283;52.504;13.358;2022-12-18T02:29:38;93.18;;;23.75;;
41568;SDS011;27283;52.504;13.358;2022-12-18T02:32:22;98.18;;;23.38;;
41568;SDS011;27283;52.504;13.358;2022-12-18T02:34:57;91.45;;;24.50;;
41568;SDS011;27283;52.504;13.358;2022-12-18T02:37:30;94.40;;;24.23;;
41568;SDS011;27283;52.504;13.358;2022-12-18T02:40:06;91.05;;;22.77;;
41568;SDS011;27283;52.504;13.358;2022-12-18T02:42:42;88.95;;;23.20;;
41568;SDS011;27283;52.504;13.358;2022-12-18T02:45:13;81.53;;;22.83;;
41568;SDS011;27283;52.504;13.358;2022-12-18T02:47:45;84.13;;;22.58;;
41568;SDS011;27283;52.504;13.358;2022-12-18T02:50:20;84.78;;;22.25;;
41568;SDS011;27283;52.504;13.358;2022-12-18T02:53:00;82.60;;;22.27;;
41568;SDS011;27283;52.504;13.358;2022-12-18T02:55:44;88.85;;;22.27;;
41568;SDS011;27283;52.504;13.358;2022-12-18T02:58:29;91.03;;;22.35;;
41568;SDS011;27283;52.504;13.358;2022-12-18T03:01:07;97.63;;;23.65;;
41568;SDS011;27283;52.504;13.358;2022-12-18T03:03:46;87.53;;;22.90;;
41568;SDS011;27283;52.504;13.358;2022-12-18T03:06:23;87.97;;;24.45;;
41568;SDS011;27283;52.504;13.358;2022-12-18T03:08:58;100.55;;;22.95;;
41568;SDS011;27283;52.504;13.358;2022-12-18T03:11:38;91.57;;;23.05;;
41568;SDS011;27283;52.504;13.358;2022-12-18T03:14:30;84.78;;;21.48;;
41568;SDS011;27283;52.504;13.358;2022-12-18T03:17:05;89.05;;;21.77;;
41568;SDS011;27283;52.504;13.358;2022-12-18T03:19:42;97.30;;;23.77;;
41568;SDS011;27283;52.504;13.358;2022-12-18T03:22:17;85.93;;;21.75;;
41568;SDS011;27283;52.504;13.358;2022-12-18T03:24:50;90.45;;;23.05;;
41568;SDS011;27283;52.504;13.358;2022-12-18T03:27:24;87.68;;;23.02;;
41568;SDS011;27283;52.504;13.358;2022-12-18T03:30:03;90.63;;;25.10;;
41568;SDS011;27283;52.504;13.358;2022-12-18T03:32:39;99.38;;;25.85;;
41568;SDS011;27283;52.504;13.358;2022-12-18T03:35:16;88.28;;;23.40;;
41568;SDS011;27283;52.504;13.358;2022-12-18T03:37:52;95.85;;;24.02;;
41568;SDS011;27283;52.504;13.358;2022-12-18T03:40:26;94.45;;;24.20;;
41568;SDS011;27283;52.504;13.358;2022-12-18T03:43:03;98.00;;;22.50;;
41568;SDS011;27283;52.504;13.358;2022-12-18T03:45:46;101.40;;;26.33;;
41568;SDS011;27283;52.504;13.358;2022-12-18T03:48:25;94.35;;;25.13;;
41568;SDS011;27283;52.504;13.358;2022-12-18T03:51:05;104.78;;;26.30;;
41568;SDS011;27283;52.504;13.358;2022-12-18T03:53:41;117.95;;;28.23;;
41568;SDS011;27283;52.504;13.358;2022-12-18T03:56:19;103.15;;;27.27;;
41568;SDS011;27283;52.504;13.358;2022-12-18T03:58:54;113.07;;;27.52;;
41568;SDS011;27283;52.504;13.358;2022-12-18T04:01:31;130.30;;;29.15;;
41568;SDS011;27283;52.504;13.358;2022-12-18T04:04:06;129.82;;;28.80;;
41568;SDS011;27283;52.504;13.358;2022-12-18T04:06:41;127.00;;;30.27;;
41568;SDS011;27283;52.504;13.358;2022-12-18T04:09:14;118.10;;;29.30;;
41568;SDS011;27283;52.504;13.358;2022-12-18T04:11:46;121.55;;;27.67;;
41568;SDS011;27283;52.504;13.358;2022-12-18T04:14:18;114.35;;;28.27;;
41568;SDS011;27283;52.504;13.358;2022-12-18T04:16:52;131.93;;;29.83;;
41568;SDS011;27283;52.504;13.358;2022-12-18T04:19:23;142.30;;;32.42;;
41568;SDS011;27283;52.504;13.358;2022-12-18T04:21:54;131.35;;;30.90;;
41568;SDS011;27283;52.504;13.358;2022-12-18T04:24:25;152.82;;;33.75;;
41568;SDS011;27283;52.504;13.358;2022-12-18T04:26:57;137.98;;;33.35;;
41568;SDS011;27283;52.504;13.358;2022-12-18T04:29:28;138.23;;;32.33;;
41568;SDS011;27283;52.504;13.358;2022-12-18T04:32:03;148.90;;;32.42;;
41568;SDS011;27283;52.504;13.358;2022-12-18T04:34:35;136.25;;;31.10;;
41568;SDS011;27283;52.504;13.358;2022-12-18T04:37:09;140.40;;;31.15;;
41568;SDS011;27283;52.504;13.358;2022-12-18T04:39:40;142.18;;;32.25;;
41568;SDS011;27283;52.504;13.358;2022-12-18T04:42:11;148.75;;;32.30;;
41568;SDS011;27283;52.504;13.358;2022-12-18T04:44:42;141.50;;;31.73;;
41568;SDS011;27283;52.504;13.358;2022-12-18T04:47:17;142.43;;;31.45;;
41568;SDS011;27283;52.504;13.358;2022-12-18T04:49:49;129.38;;;29.60;;
41568;SDS011;27283;52.504;13.358;2022-12-18T04:52:27;145.40;;;31.05;;
41568;SDS011;27283;52.504;13.358;2022-12-18T04:55:02;120.40;;;29.13;;
41568;SDS011;27283;52.504;13.358;2022-12-18T04:57:34;116.53;;;26.88;;
41568;SDS011;27283;52.504;13.358;2022-12-18T05:00:06;129.20;;;30.58;;
41568;SDS011;27283;52.504;13.358;2022-12-18T05:02:41;105.93;;;25.05;;
41568;SDS011;27283;52.504;13.358;2022-12-18T05:05:14;132.40;;;30.55;;
41568;SDS011;27283;52.504;13.358;2022-12-18T05:07:45;126.93;;;29.55;;
41568;SDS011;27283;52.504;13.358;2022-12-18T05:10:17;133.32;;;31.95;;
41568;SDS011;27283;52.504;13.358;2022-12-18T05:12:49;122.95;;;28.55;;
41568;SDS011;27283;52.504;13.358;2022-12-18T05:15:32;122.47;;;28.23;;
41568;SDS011;27283;52.504;13.358;2022-12-18T05:18:07;122.93;;;27.20;;
41568;SDS011;27283;52.504;13.358;2022-12-18T05:20:39;120.47;;;26.92;;
41568;SDS011;27283;52.504;13.358;2022-12-18T05:23:12;123.20;;;27.50;;
41568;SDS011;27283;52.504;13.358;2022-12-18T05:25:50;119.10;;;27.42;;
41568;SDS011;27283;52.504;13.358;2022-12-18T05:28:22;118.82;;;28.45;;
41568;SDS011;27283;52.504;13.358;2022-12-18T05:30:56;118.93;;;27.17;;
41568;SDS011;27283;52.504;13.358;2022-12-18T05:33:33;104.85;;;25.98;;
41568;SDS011;27283;52.504;13.358;2022-12-18T05:36:20;108.88;;;26.40;;
41568;SDS011;27283;52.504;13.358;2022-12-18T05:38:51;103.90;;;27.02;;
41568;SDS011;27283;52.504;13.358;2022-12-18T05:41:23;102.05;;;25.63;;
41568;SDS011;27283;52.504;13.358;2022-12-18T05:43:59;116.95;;;27.92;;
41568;SDS011;27283;52.504;13.358;2022-12-18T05:46:32;106.13;;;25.90;;
41568;SDS011;27283;52.504;13.358;2022-12-18T05:49:09;120.30;;;29.17;;
41568;SDS011;27283;52.504;13.358;2022-12-18T05:51:41;123.25;;;28.80;;
41568;SDS011;27283;52.504;13.358;2022-12-18T05:54:13;126.22;;;30.10;;
41568;SDS011;27283;52.504;13.358;2022-12-18T05:56:46;126.80;;;30.58;;
41568;SDS011;27283;52.504;13.358;2022-12-18T05:59:17;117.53;;;30.58;;
41568;SDS011;27283;52.504;13.358;2022-12-18T06:01:49;120.45;;;27.90;;
41568;SDS011;27283;52.504;13.358;2022-12-18T06:04:23;120.72;;;29.30;;
41568;SDS011;27283;52.504;13.358;2022-12-18T06:06:59;119.63;;;29.50;;
41568;SDS011;27283;52.504;13.358;2022-12-18T06:09:30;122.60;;;29.42;;
41568;SDS011;27283;52.504;13.358;2022-12-18T06:12:04;134.00;;;32.05;;
41568;SDS011;27283;52.504;13.358;2022-12-18T06:14:36;127.50;;;31.42;;
41568;SDS011;27283;52.504;13.358;2022-12-18T06:17:09;118.03;;;29.65;;
41568;SDS011;27283;52.504;13.358;2022-12-18T06:19:43;132.82;;;31.90;;
41568;SDS011;27283;52.504;13.358;2022-12-18T06:22:15;123.50;;;30.13;;
41568;SDS011;27283;52.504;13.358;2022-12-18T06:24:47;136.55;;;30.58;;
41568;SDS011;27283;52.504;13.358;2022-12-18T06:27:19;148.60;;;34.63;;
41568;SDS011;27283;52.504;13.358;2022-12-18T06:29:52;129.13;;;32.45;;
41568;SDS011;27283;52.504;13.358;2022-12-18T06:32:26;121.00;;;29.30;;
41568;SDS011;27283;52.504;13.358;2022-12-18T06:35:01;121.18;;;29.95;;
41568;SDS011;27283;52.504;13.358;2022-12-18T06:37:32;129.90;;;30.58;;
41568;SDS011;27283;52.504;13.358;2022-12-18T06:40:06;129.20;;;30.67;;
41568;SDS011;27283;52.504;13.358;2022-12-18T06:42:38;131.20;;;29.20;;
41568;SDS011;27283;52.504;13.358;2022-12-18T06:45:16;123.18;;;29.67;;
41568;SDS011;27283;52.504;13.358;2022-12-18T06:47:48;148.60;;;32.25;;
41568;SDS011;27283;52.504;13.358;2022-12-18T06:50:22;128.60;;;30.60;;
41568;SDS011;27283;52.504;13.358;2022-12-18T06:52:55;122.80;;;29.80;;
41568;SDS011;27283;52.504;13.358;2022-12-18T06:55:30;125.88;;;31.60;;
41568;SDS011;27283;52.504;13.358;2022-12-18T06:58:03;129.57;;;30.25;;
41568;SDS011;27283;52.504;13.358;2022-12-18T07:00:38;132.18;;;29.83;;
41568;SDS011;27283;52.504;13.358;2022-12-18T07:03:13;112.60;;;28.42;;
41568;SDS011;27283;52.504;13.358;2022-12-18T07:05:48;121.40;;;29.40;;
41568;SDS011;27283;52.504;13.358;2022-12-18T07:08:22;98.82;;;23.85;;
41568;SDS011;27283;52.504;13.358;2022-12-18T07:10:54;94.45;;;24.02;;
41568;SDS011;27283;52.504;13.358;2022-12-18T07:13:26;104.03;;;25.23;;
41568;SDS011;27283;52.504;13.358;2022-12-18T07:16:03;101.88;;;25.35;;
41568;SDS011;27283;52.504;13.358;2022-12-18T07:18:48;105.88;;;26.33;;
41568;SDS011;27283;52.504;13.358;2022-12-18T07:21:27;109.07;;;27.00;;
41568;SDS011;27283;52.504;13.358;2022-12-18T07:24:04;111.25;;;27.17;;
41568;SDS011;27283;52.504;13.358;2022-12-18T07:26:41;108.65;;;27.80;;
41568;SDS011;27283;52.504;13.358;2022-12-18T07:29:13;105.60;;;27.25;;
41568;SDS011;27283;52.504;13.358;2022-12-18T07:31:45;100.35;;;25.25;;
41568;SDS011;27283;52.504;13.358;2022-12-18T07:34:19;99.15;;;25.88;;
41568;SDS011;27283;52.504;13.358;2022-12-18T07:36:54;90.32;;;24.10;;
41568;SDS011;27283;52.504;13.358;2022-12-18T07:39:26;101.75;;;25.38;;
41568;SDS011;27283;52.504;13.358;2022-12-18T07:42:00;96.13;;;24.08;;
41568;SDS011;27283;52.504;13.358;2022-12-18T07:44:57;90.03;;;24.83;;
41568;SDS011;27283;52.504;13.358;2022-12-18T07:47:34;105.90;;;26.38;;
41568;SDS011;27283;52.504;13.358;2022-12-18T07:50:06;105.30;;;28.02;;
41568;SDS011;27283;52.504;13.358;2022-12-18T07:52:42;110.07;;;26.08;;
41568;SDS011;27283;52.504;13.358;2022-12-18T07:55:16;116.95;;;27.95;;
41568;SDS011;27283;52.504;13.358;2022-12-18T07:57:49;113.22;;;26.05;;
41568;SDS011;27283;52.504;13.358;2022-12-18T08:00:28;110.57;;;26.58;;
41568;SDS011;27283;52.504;13.358;2022-12-18T08:03:00;113.40;;;27.83;;
41568;SDS011;27283;52.504;13.358;2022-12-18T08:05:34;108.95;;;26.00;;
41568;SDS011;27283;52.504;13.358;2022-12-18T08:08:08;99.18;;;25.10;;
41568;SDS011;27283;52.504;13.358;2022-12-18T08:10:41;100.13;;;24.60;;
41568;SDS011;27283;52.504;13.358;2022-12-18T08:13:12;113.18;;;26.95;;
41568;SDS011;27283;52.504;13.358;2022-12-18T08:15:44;112.00;;;26.98;;
41568;SDS011;27283;52.504;13.358;2022-12-18T08:18:17;99.78;;;26.67;;
41568;SDS011;27283;52.504;13.358;2022-12-18T08:20:49;104.88;;;26.23;;
41568;SDS011;27283;52.504;13.358;2022-12-18T08:23:23;108.07;;;27.13;;
41568;SDS011;27283;52.504;13.358;2022-12-18T08:25:57;103.68;;;25.65;;
41568;SDS011;27283;52.504;13.358;2022-12-18T08:28:30;109.25;;;26.27;;
41568;SDS011;27283;52.504;13.358;2022-12-18T08:31:02;90.57;;;22.73;;
41568;SDS011;27283;52.504;13.358;2022-12-18T08:33:34;90.38;;;23.33;;
41568;SDS011;27283;52.504;13.358;2022-12-18T08:36:09;94.85;;;25.10;;
41568;SDS011;27283;52.504;13.358;2022-12-18T08:38:43;100.82;;;25.70;;
41568;SDS011;27283;52.504;13.358;2022-12-18T08:41:18;102.43;;;26.92;;
41568;SDS011;27283;52.504;13.358;2022-12-18T08:43:50;100.00;;;26.23;;
41568;SDS011;27283;52.504;13.358;2022-12-18T08:46:36;99.00;;;23.75;;
41568;SDS011;27283;52.504;13.358;2022-12-18T08:49:11;96.85;;;23.25;;
41568;SDS011;27283;52.504;13.358;2022-12-18T08:51:44;100.40;;;25.17;;
41568;SDS011;27283;52.504;13.358;2022-12-18T08:54:18;84.05;;;23.52;;
41568;SDS011;27283;52.504;13.358;2022-12-18T08:56:52;87.70;;;24.00;;
41568;SDS011;27283;52.504;13.358;2022-12-18T08:59:23;100.68;;;25.75;;
41568;SDS011;27283;52.504;13.358;2022-12-18T09:01:56;93.32;;;24.42;;
41568;SDS011;27283;52.504;13.358;2022-12-18T09:04:29;92.00;;;24.20;;
41568;SDS011;27283;52.504;13.358;2022-12-18T09:07:01;85.53;;;22.27;;
41568;SDS011;27283;52.504;13.358;2022-12-18T09:09:35;83.55;;;21.98;;
41568;SDS011;27283;52.504;13.358;2022-12-18T09:12:07;97.53;;;24.77;;
41568;SDS011;27283;52.504;13.358;2022-12-18T09:14:38;91.57;;;24.27;;
41568;SDS011;27283;52.504;13.358;2022-12-18T09:17:11;95.45;;;24.95;;
41568;SDS011;27283;52.504;13.358;2022-12-18T09:19:43;122.15;;;31.17;;
41568;SDS011;27283;52.504;13.358;2022-12-18T09:22:15;93.45;;;24.23;;
41568;SDS011;27283;52.504;13.358;2022-12-18T09:24:51;95.75;;;24.38;;
41568;SDS011;27283;52.504;13.358;2022-12-18T09:27:23;112.88;;;29.05;;
41568;SDS011;27283;52.504;13.358;2022-12-18T09:29:55;96.53;;;25.38;;
41568;SDS011;27283;52.504;13.358;2022-12-18T09:32:27;109.85;;;27.77;;
41568;SDS011;27283;52.504;13.358;2022-12-18T09:34:59;88.50;;;23.70;;
41568;SDS011;27283;52.504;13.358;2022-12-18T09:37:31;85.88;;;24.38;;
41568;SDS011;27283;52.504;13.358;2022-12-18T09:40:06;84.75;;;23.80;;
41568;SDS011;27283;52.504;13.358;2022-12-18T09:42:45;95.32;;;24.70;;
41568;SDS011;27283;52.504;13.358;2022-12-18T09:45:26;102.40;;;25.70;;
41568;SDS011;27283;52.504;13.358;2022-12-18T09:48:01;86.57;;;22.77;;
41568;SDS011;27283;52.504;13.358;2022-12-18T09:50:35;84.80;;;23.38;;
41568;SDS011;27283;52.504;13.358;2022-12-18T09:53:12;94.13;;;24.25;;
41568;SDS011;27283;52.504;13.358;2022-12-18T09:55:51;82.65;;;23.15;;
41568;SDS011;27283;52.504;13.358;2022-12-18T09:58:26;85.63;;;24.23;;
41568;SDS011;27283;52.504;13.358;2022-12-18T10:01:06;79.45;;;22.42;;
41568;SDS011;27283;52.504;13.358;2022-12-18T10:03:42;83.68;;;21.10;;
41568;SDS011;27283;52.504;13.358;2022-12-18T10:06:15;81.13;;;22.20;;
41568;SDS011;27283;52.504;13.358;2022-12-18T10:08:54;75.38;;;19.75;;
41568;SDS011;27283;52.504;13.358;2022-12-18T10:11:36;93.22;;;25.88;;
41568;SDS011;27283;52.504;13.358;2022-12-18T10:14:16;89.32;;;25.00;;
41568;SDS011;27283;52.504;13.358;2022-12-18T10:16:57;92.95;;;24.45;;
41568;SDS011;27283;52.504;13.358;2022-12-18T10:19:36;91.88;;;24.77;;
41568;SDS011;27283;52.504;13.358;2022-12-18T10:22:21;85.40;;;24.35;;
41568;SDS011;27283;52.504;13.358;2022-12-18T10:25:02;86.00;;;23.52;;
41568;SDS011;27283;52.504;13.358;2022-12-18T10:27:40;93.55;;;24.60;;
41568;SDS011;27283;52.504;13.358;2022-12-18T10:30:16;106.05;;;29.00;;
41568;SDS011;27283;52.504;13.358;2022-12-18T10:32:49;100.45;;;26.75;;
41568;SDS011;27283;52.504;13.358;2022-12-18T10:35:22;99.13;;;25.33;;
41568;SDS011;27283;52.504;13.358;2022-12-18T10:37:59;88.68;;;25.33;;
41568;SDS011;27283;52.504;13.358;2022-12-18T10:40:48;94.95;;;26.00;;
41568;SDS011;27283;52.504;13.358;2022-12-18T10:43:25;95.70;;;25.83;;
41568;SDS011;27283;52.504;13.358;2022-12-18T10:48:50;91.38;;;25.40;;
41568;SDS011;27283;52.504;13.358;2022-12-18T10:51:26;76.78;;;22.63;;
41568;SDS011;27283;52.504;13.358;2022-12-18T10:54:02;89.82;;;23.55;;
41568;SDS011;27283;52.504;13.358;2022-12-18T10:56:37;88.03;;;24.00;;
41568;SDS011;27283;52.504;13.358;2022-12-18T10:59:14;80.88;;;21.90;;
41568;SDS011;27283;52.504;13.358;2022-12-18T11:01:49;87.93;;;24.70;;
41568;SDS011;27283;52.504;13.358;2022-12-18T11:04:23;93.22;;;25.42;;
41568;SDS011;27283;52.504;13.358;2022-12-18T11:06:59;85.63;;;23.45;;
41568;SDS011;27283;52.504;13.358;2022-12-18T11:09:33;106.03;;;30.05;;
41568;SDS011;27283;52.504;13.358;2022-12-18T11:12:15;94.47;;;26.52;;
41568;SDS011;27283;52.504;13.358;2022-12-18T11:14:52;104.85;;;28.45;;
41568;SDS011;27283;52.504;13.358;2022-12-18T11:17:27;85.85;;;25.42;;
41568;SDS011;27283;52.504;13.358;2022-12-18T11:20:02;91.97;;;26.35;;
41568;SDS011;27283;52.504;13.358;2022-12-18T11:22:37;80.10;;;22.60;;
41568;SDS011;27283;52.504;13.358;2022-12-18T11:25:17;93.90;;;25.20;;
41568;SDS011;27283;52.504;13.358;2022-12-18T11:28:02;97.68;;;28.20;;
41568;SDS011;27283;52.504;13.358;2022-12-18T11:30:38;90.93;;;24.77;;
41568;SDS011;27283;52.504;13.358;2022-12-18T11:33:10;100.93;;;29.50;;
41568;SDS011;27283;52.504;13.358;2022-12-18T11:35:47;85.15;;;25.27;;
41568;SDS011;27283;52.504;13.358;2022-12-18T11:38:27;90.22;;;24.27;;
41568;SDS011;27283;52.504;13.358;2022-12-18T11:41:02;81.20;;;21.98;;
41568;SDS011;27283;52.504;13.358;2022-12-18T11:43:42;93.03;;;25.33;;
41568;SDS011;27283;52.504;13.358;2022-12-18T11:46:26;83.05;;;23.23;;
41568;SDS011;27283;52.504;13.358;2022-12-18T11:49:11;80.00;;;23.25;;
41568;SDS011;27283;52.504;13.358;2022-12-18T11:51:48;87.57;;;24.23;;
41568;SDS011;27283;52.504;13.358;2022-12-18T11:54:24;69.78;;;21.23;;
41568;SDS011;27283;52.504;13.358;2022-12-18T11:56:56;92.38;;;27.20;;
41568;SDS011;27283;52.504;13.358;2022-12-18T11:59:36;84.57;;;23.25;;
41568;SDS011;27283;52.504;13.358;2022-12-18T12:02:25;76.78;;;22.98;;
41568;SDS011;27283;52.504;13.358;2022-12-18T12:05:17;76.00;;;22.88;;
41568;SDS011;27283;52.504;13.358;2022-12-18T12:07:58;78.57;;;22.35;;
41568;SDS011;27283;52.504;13.358;2022-12-18T12:10:41;81.43;;;23.23;;
41568;SDS011;27283;52.504;13.358;2022-12-18T12:13:29;79.00;;;22.85;;
41568;SDS011;27283;52.504;13.358;2022-12-18T12:16:15;73.88;;;22.73;;
41568;SDS011;27283;52.504;13.358;2022-12-18T12:18:55;71.68;;;22.08;;
41568;SDS011;27283;52.504;13.358;2022-12-18T12:21:41;70.00;;;21.30;;
41568;SDS011;27283;52.504;13.358;2022-12-18T12:24:21;71.53;;;22.02;;
41568;SDS011;27283;52.504;13.358;2022-12-18T12:27:04;78.40;;;24.02;;
41568;SDS011;27283;52.504;13.358;2022-12-18T12:29:46;77.00;;;22.45;;
41568;SDS011;27283;52.504;13.358;2022-12-18T12:32:31;67.75;;;22.15;;
41568;SDS011;27283;52.504;13.358;2022-12-18T12:35:20;77.10;;;22.40;;
41568;SDS011;27283;52.504;13.358;2022-12-18T12:38:03;65.88;;;22.70;;
41568;SDS011;27283;52.504;13.358;2022-12-18T12:40:44;73.25;;;23.13;;
41568;SDS011;27283;52.504;13.358;2022-12-18T12:43:32;72.03;;;22.55;;
41568;SDS011;27283;52.504;13.358;2022-12-18T12:46:16;66.82;;;21.02;;
41568;SDS011;27283;52.504;13.358;2022-12-18T12:48:53;64.55;;;20.23;;
41568;SDS011;27283;52.504;13.358;2022-12-18T12:51:32;63.42;;;21.00;;
41568;SDS011;27283;52.504;13.358;2022-12-18T12:54:22;72.53;;;22.00;;
41568;SDS011;27283;52.504;13.358;2022-12-18T12:56:57;73.47;;;21.88;;
41568;SDS011;27283;52.504;13.358;2022-12-18T12:59:35;58.80;;;18.55;;
41568;SDS011;27283;52.504;13.358;2022-12-18T13:02:21;68.68;;;21.25;;
41568;SDS011;27283;52.504;13.358;2022-12-18T13:05:01;65.68;;;20.45;;
41568;SDS011;27283;52.504;13.358;2022-12-18T13:07:45;68.43;;;22.75;;
41568;SDS011;27283;52.504;13.358;2022-12-18T13:10:28;61.25;;;19.38;;
41568;SDS011;27283;52.504;13.358;2022-12-18T13:13:04;69.88;;;23.25;;
41568;SDS011;27283;52.504;13.358;2022-12-18T13:15:38;65.32;;;21.58;;
41568;SDS011;27283;52.504;13.358;2022-12-18T13:18:17;62.88;;;21.42;;
41568;SDS011;27283;52.504;13.358;2022-12-18T13:20:50;70.90;;;23.17;;
41568;SDS011;27283;52.504;13.358;2022-12-18T13:23:35;70.90;;;23.05;;
41568;SDS011;27283;52.504;13.358;2022-12-18T13:29:03;63.80;;;21.88;;
41568;SDS011;27283;52.504;13.358;2022-12-18T13:34:46;70.25;;;24.55;;
41568;SDS011;27283;52.504;13.358;2022-12-18T13:43:27;72.30;;;23.50;;
41568;SDS011;27283;52.504;13.358;2022-12-18T13:46:03;66.68;;;20.83;;
41568;SDS011;27283;52.504;13.358;2022-12-18T13:48:50;71.15;;;22.77;;
41568;SDS011;27283;52.504;13.358;2022-12-18T13:51:28;56.92;;;19.23;;
41568;SDS011;27283;52.504;13.358;2022-12-18T13:54:02;59.88;;;21.52;;
41568;SDS011;27283;52.504;13.358;2022-12-18T13:56:45;65.38;;;22.20;;
41568;SDS011;27283;52.504;13.358;2022-12-18T13:59:21;68.32;;;22.73;;
41568;SDS011;27283;52.504;13.358;2022-12-18T14:01:56;71.40;;;24.48;;
41568;SDS011;27283;52.504;13.358;2022-12-18T14:04:32;76.53;;;25.33;;
41568;SDS011;27283;52.504;13.358;2022-12-18T14:07:04;75.43;;;24.75;;
41568;SDS011;27283;52.504;13.358;2022-12-18T14:09:42;65.40;;;22.92;;
41568;SDS011;27283;52.504;13.358;2022-12-18T14:12:17;66.10;;;22.60;;
41568;SDS011;27283;52.504;13.358;2022-12-18T14:15:09;76.60;;;24.08;;
41568;SDS011;27283;52.504;13.358;2022-12-18T14:18:02;76.95;;;26.60;;
41568;SDS011;27283;52.504;13.358;2022-12-18T14:20:50;87.78;;;28.15;;
41568;SDS011;27283;52.504;13.358;2022-12-18T14:23:27;91.43;;;29.98;;
41568;SDS011;27283;52.504;13.358;2022-12-18T14:26:00;85.00;;;29.73;;
41568;SDS011;27283;52.504;13.358;2022-12-18T14:28:32;80.75;;;26.38;;
41568;SDS011;27283;52.504;13.358;2022-12-18T14:31:19;83.85;;;28.35;;
41568;SDS011;27283;52.504;13.358;2022-12-18T14:33:53;91.55;;;29.70;;
41568;SDS011;27283;52.504;13.358;2022-12-18T14:36:25;82.03;;;25.42;;
41568;SDS011;27283;52.504;13.358;2022-12-18T14:38:58;74.30;;;24.95;;
41568;SDS011;27283;52.504;13.358;2022-12-18T14:41:30;76.43;;;23.90;;
41568;SDS011;27283;52.504;13.358;2022-12-18T14:44:05;85.05;;;28.10;;
41568;SDS011;27283;52.504;13.358;2022-12-18T14:46:44;78.30;;;27.50;;
41568;SDS011;27283;52.504;13.358;2022-12-18T14:49:19;83.70;;;27.70;;
41568;SDS011;27283;52.504;13.358;2022-12-18T14:51:56;56.22;;;19.83;;
41568;SDS011;27283;52.504;13.358;2022-12-18T14:54:30;73.85;;;25.55;;
41568;SDS011;27283;52.504;13.358;2022-12-18T14:57:05;78.40;;;25.17;;
41568;SDS011;27283;52.504;13.358;2022-12-18T14:59:59;70.07;;;25.27;;
41568;SDS011;27283;52.504;13.358;2022-12-18T15:06:17;64.20;;;22.73;;
41568;SDS011;27283;52.504;13.358;2022-12-18T15:08:57;58.03;;;19.45;;
41568;SDS011;27283;52.504;13.358;2022-12-18T15:11:33;70.38;;;24.50;;
41568;SDS011;27283;52.504;13.358;2022-12-18T15:14:23;66.40;;;24.13;;
41568;SDS011;27283;52.504;13.358;2022-12-18T15:17:03;60.00;;;20.98;;